Terminal Aerodrome Forecast
Issued by NWS

Home | Current Version | Previous Version | Text Only | Print | Product List | Glossary On
Versions: 1 2 3 4 5 6 7 8 9 10 11 12 13 14 15 16 17 18
000
FTUS45 KCYS 290520
TAFAIA
TAF
KAIA 290520Z 2906/3006 15005KT P6SM SCT100
     FM290900 VRB03KT 3SM BR BKN008
     FM291400 22007G20KT P6SM SCT080
     FM300000 17008KT P6SM VCTS BKN080CB
     FM300400 15008KT P6SM BKN080=

USA.gov is the U.S. government's official web portal to all federal, state and local government web resources and services.